Time;durP1;ratioP1;P1;durP2;ratioP2;P2;SDS_P1;SDS_P2;PMS_P1;PMS_P2;Temp;Humidity;BMP_temperature;BMP_pressure;BME280_temperature;BME280_humidity;BME280_pressure;Samples;Min_cycle;Max_cycle;Signal;HPM_P1;HPM_P2
2022/04/03 00:00:32;;;;;;;3.55;3.05;;;0.70;86.40;;;;;;4995752;28;92119;-70
2022/04/03 00:03:01;;;;;;;3.20;2.88;;;0.70;86.50;;;;;;4997732;28;89390;-70
2022/04/03 00:05:28;;;;;;;3.90;2.60;;;0.70;86.60;;;;;;4996051;28;88129;-70
2022/04/03 00:07:55;;;;;;;3.83;2.83;;;0.70;86.60;;;;;;4997681;28;88245;-70
2022/04/03 00:10:22;;;;;;;3.67;2.80;;;0.70;86.70;;;;;;4997458;28;88648;-70
2022/04/03 00:12:50;;;;;;;4.65;2.80;;;0.60;86.70;;;;;;4997263;28;88786;-70
2022/04/03 00:15:18;;;;;;;2.88;2.65;;;0.60;86.90;;;;;;4996431;28;89710;-70
2022/04/03 00:17:45;;;;;;;4.90;3.22;;;0.60;86.90;;;;;;4997992;28;88421;-69
2022/04/03 00:20:13;;;;;;;2.97;2.53;;;0.60;87.00;;;;;;4997441;28;88958;-70
2022/04/03 00:22:43;;;;;;;3.03;2.60;;;0.60;87.10;;;;;;4997506;28;88807;-68
2022/04/03 00:25:11;;;;;;;5.07;2.90;;;0.50;87.20;;;;;;4997176;28;89569;-69
2022/04/03 00:27:38;;;;;;;5.88;3.05;;;0.50;87.40;;;;;;4996011;28;88395;-69
2022/04/03 00:30:07;;;;;;;4.05;3.20;;;0.50;87.40;;;;;;4997399;28;88840;-69
2022/04/03 00:32:34;;;;;;;4.95;2.88;;;0.50;87.40;;;;;;4995715;28;91257;-70
2022/04/03 00:35:03;;;;;;;3.80;2.35;;;0.50;87.60;;;;;;5000903;28;87975;-70
2022/04/03 00:37:30;;;;;;;4.90;2.50;;;0.40;87.70;;;;;;4998649;28;88373;-70
2022/04/03 00:39:57;;;;;;;2.83;2.28;;;0.40;87.90;;;;;;4983113;28;88865;-70
2022/04/03 00:42:24;;;;;;;4.32;3.35;;;0.40;87.80;;;;;;4999375;28;91091;-69
2022/04/03 00:44:51;;;;;;;4.05;2.72;;;0.40;88.00;;;;;;4998900;28;94434;-70
2022/04/03 00:47:20;;;;;;;4.72;2.80;;;0.40;88.20;;;;;;5000637;28;88928;-69
2022/04/03 00:49:47;;;;;;;2.83;2.58;;;0.40;88.40;;;;;;4999980;28;89447;-70
2022/04/03 00:52:14;;;;;;;3.80;3.00;;;0.30;88.60;;;;;;4999265;28;89384;-68
2022/04/03 00:54:41;;;;;;;4.53;3.13;;;0.30;88.70;;;;;;4998726;28;89705;-69
2022/04/03 00:57:09;;;;;;;4.85;2.70;;;0.30;88.70;;;;;;5000501;28;88461;-70
2022/04/03 00:59:36;;;;;;;3.10;2.20;;;0.30;88.70;;;;;;5000241;28;88849;-70
2022/04/03 01:02:04;;;;;;;4.32;2.60;;;0.30;88.60;;;;;;4999115;28;88616;-70
2022/04/03 01:04:31;;;;;;;2.92;2.45;;;0.20;88.60;;;;;;5000087;28;88122;-70
2022/04/03 01:06:58;;;;;;;3.60;2.78;;;0.20;88.70;;;;;;5000409;28;88125;-70
2022/04/03 01:09:26;;;;;;;2.63;2.42;;;0.20;88.90;;;;;;4998469;28;98941;-70
2022/04/03 01:11:54;;;;;;;4.47;2.60;;;0.20;88.90;;;;;;4998812;28;88655;-70
2022/04/03 01:14:38;;;;;;;3.60;2.47;;;0.20;88.90;;;;;;4998598;28;89143;-70
2022/04/03 01:17:07;;;;;;;2.50;2.30;;;0.20;89.00;;;;;;4999085;28;88317;-70
2022/04/03 01:19:34;;;;;;;3.00;2.50;;;0.20;89.20;;;;;;4998412;28;88865;-70
2022/04/03 01:22:01;;;;;;;3.85;2.53;;;0.20;89.30;;;;;;5000002;28;88673;-70
2022/04/03 01:24:30;;;;;;;5.93;2.67;;;0.20;89.30;;;;;;4998208;28;88358;-70
2022/04/03 01:27:00;;;;;;;3.58;3.20;;;0.20;89.20;;;;;;4983200;28;88134;-70
2022/04/03 01:29:27;;;;;;;3.55;2.50;;;0.20;89.00;;;;;;4999460;28;88908;-70
2022/04/03 01:31:54;;;;;;;3.00;2.70;;;0.20;89.20;;;;;;4998647;28;88674;-70
2022/04/03 01:34:21;;;;;;;4.22;3.10;;;0.20;89.30;;;;;;4999523;28;99111;-70
2022/04/03 01:36:49;;;;;;;4.28;2.95;;;0.10;89.50;;;;;;4998515;28;88320;-70
2022/04/03 01:39:16;;;;;;;5.22;3.30;;;0.10;89.50;;;;;;4999101;28;89455;-70
2022/04/03 01:41:44;;;;;;;4.18;2.85;;;0.10;89.50;;;;;;4999461;28;89433;-70
2022/04/03 01:44:12;;;;;;;2.92;2.63;;;0.10;89.50;;;;;;4997779;28;88017;-70
2022/04/03 01:46:39;;;;;;;6.40;3.30;;;0.10;89.60;;;;;;4997824;28;88042;-70
2022/04/03 01:49:07;;;;;;;5.07;3.42;;;0.10;89.70;;;;;;4998044;28;91521;-70
2022/04/03 01:51:35;;;;;;;4.18;2.85;;;0.10;89.70;;;;;;4998020;28;88585;-70
2022/04/03 01:54:03;;;;;;;4.00;2.88;;;0.00;90.00;;;;;;4999620;28;88337;-70
2022/04/03 01:56:34;;;;;;;3.00;2.70;;;0.00;90.10;;;;;;4998226;28;88476;-70
2022/04/03 01:59:03;;;;;;;4.38;2.58;;;0.00;90.10;;;;;;4997516;28;91306;-70
2022/04/03 02:01:32;;;;;;;2.95;2.67;;;0.10;90.20;;;;;;4999313;28;88716;-70
2022/04/03 02:04:00;;;;;;;5.82;2.92;;;0.00;90.20;;;;;;4997525;28;89433;-70
2022/04/03 02:06:27;;;;;;;3.38;2.65;;;0.00;90.20;;;;;;4999302;28;88355;-70
2022/04/03 02:08:54;;;;;;;3.13;2.72;;;0.00;90.30;;;;;;4997534;28;91556;-70
2022/04/03 02:11:21;;;;;;;6.00;2.58;;;0.00;90.30;;;;;;5014569;28;88637;-70
2022/04/03 02:13:48;;;;;;;4.07;2.67;;;0.00;90.40;;;;;;4997677;28;89359;-70
2022/04/03 02:16:15;;;;;;;4.85;2.63;;;0.00;90.40;;;;;;4999268;28;88038;-70
2022/04/03 02:18:42;;;;;;;2.95;2.58;;;0.00;90.40;;;;;;4998725;28;88540;-70
2022/04/03 02:21:09;;;;;;;6.38;3.20;;;0.00;90.40;;;;;;4997955;28;91308;-70
2022/04/03 02:23:36;;;;;;;4.10;3.00;;;0.00;90.50;;;;;;4997569;28;89393;-68
2022/04/03 02:26:03;;;;;;;6.28;3.45;;;0.00;90.90;;;;;;4997316;28;90874;-70
2022/04/03 02:28:30;;;;;;;3.17;2.50;;;0.00;90.70;;;;;;4998398;28;89423;-70
2022/04/03 02:30:57;;;;;;;3.67;2.72;;;0.10;90.70;;;;;;4998892;28;89450;-70
2022/04/03 02:33:23;;;;;;;4.90;3.03;;;0.00;90.70;;;;;;4998980;28;87914;-70
2022/04/03 02:35:50;;;;;;;3.30;2.90;;;0.10;90.80;;;;;;4998663;28;88370;-70
2022/04/03 02:38:18;;;;;;;3.33;2.80;;;0.10;90.90;;;;;;4998030;28;88092;-70
2022/04/03 02:40:46;;;;;;;3.15;2.75;;;0.10;90.90;;;;;;4998512;28;88696;-70
2022/04/03 02:43:12;;;;;;;3.97;2.97;;;0.10;91.00;;;;;;4998901;28;88050;-70
2022/04/03 02:45:39;;;;;;;3.70;3.08;;;0.10;91.10;;;;;;4998694;28;88378;-70
2022/04/03 02:48:08;;;;;;;4.43;2.97;;;0.20;91.20;;;;;;4997049;28;91234;-70
2022/04/03 02:50:35;;;;;;;4.72;2.90;;;0.20;91.20;;;;;;4997118;28;88651;-70
2022/04/03 02:53:03;;;;;;;4.65;3.28;;;0.30;91.30;;;;;;4998053;28;88685;-70
2022/04/03 02:55:30;;;;;;;4.88;2.83;;;0.40;91.20;;;;;;5012937;28;88309;-70
2022/04/03 02:57:57;;;;;;;3.63;2.83;;;0.50;91.20;;;;;;4998002;28;88822;-70
2022/04/03 03:00:24;;;;;;;5.22;2.88;;;0.60;91.10;;;;;;4998496;28;88697;-70
2022/04/03 03:02:51;;;;;;;4.75;2.90;;;0.70;91.20;;;;;;4998312;28;88011;-70
2022/04/03 03:05:19;;;;;;;3.85;2.58;;;0.80;91.10;;;;;;4996503;28;88951;-70
2022/04/03 03:07:46;;;;;;;3.67;2.80;;;0.90;91.10;;;;;;4997872;28;88354;-70
2022/04/03 03:10:15;;;;;;;5.40;2.67;;;1.00;91.10;;;;;;4998571;28;88558;-70
2022/04/03 03:12:42;;;;;;;3.88;2.45;;;1.10;91.00;;;;;;4998037;28;88394;-70
2022/04/03 03:15:11;;;;;;;3.20;2.83;;;1.20;90.90;;;;;;4996797;28;91304;-70
2022/04/03 03:17:39;;;;;;;5.70;2.42;;;1.30;90.70;;;;;;4997534;28;89180;-70
2022/04/03 03:20:07;;;;;;;3.67;2.65;;;1.40;90.70;;;;;;4998048;28;89523;-70
2022/04/03 03:22:35;;;;;;;4.72;2.50;;;1.50;90.60;;;;;;4998067;28;87921;-70
2022/04/03 03:25:05;;;;;;;4.00;2.75;;;1.60;90.60;;;;;;4997605;28;88268;-70
2022/04/03 03:27:33;;;;;;;5.07;3.08;;;1.70;90.50;;;;;;4998190;28;88914;-70
2022/04/03 03:29:59;;;;;;;5.18;2.85;;;1.70;90.40;;;;;;4996497;28;91277;-70
2022/04/03 03:32:27;;;;;;;4.15;2.60;;;1.80;90.40;;;;;;4998158;28;88083;-70
2022/04/03 03:34:54;;;;;;;3.50;2.83;;;1.90;90.40;;;;;;4997853;28;88777;-70
2022/04/03 03:37:21;;;;;;;3.88;3.13;;;1.90;90.40;;;;;;4996173;28;91350;-70
2022/04/03 03:39:49;;;;;;;4.88;2.40;;;2.00;90.40;;;;;;4997909;28;88497;-70
2022/04/03 03:42:17;;;;;;;4.40;2.92;;;2.10;90.40;;;;;;5012686;28;94485;-70
2022/04/03 03:44:44;;;;;;;5.30;3.00;;;2.10;90.40;;;;;;4997430;28;88438;-70
2022/04/03 03:47:11;;;;;;;6.25;2.65;;;2.10;90.50;;;;;;4997775;28;88864;-70
2022/04/03 03:49:38;;;;;;;4.10;3.03;;;2.10;90.70;;;;;;4996506;28;88636;-70
2022/04/03 03:52:05;;;;;;;5.32;2.70;;;2.10;91.00;;;;;;4996505;28;87962;-70
2022/04/03 03:54:32;;;;;;;4.57;2.80;;;2.20;91.20;;;;;;4996248;28;88437;-70
2022/04/03 03:56:59;;;;;;;3.03;2.72;;;2.20;91.40;;;;;;4997554;28;88886;-70
2022/04/03 03:59:26;;;;;;;3.45;3.08;;;2.20;91.60;;;;;;4998057;28;88682;-70
2022/04/03 04:01:53;;;;;;;3.08;2.80;;;2.30;91.70;;;;;;4996238;28;88228;-70
2022/04/03 04:04:20;;;;;;;3.60;3.15;;;2.40;92.00;;;;;;4996152;28;88567;-70
2022/04/03 04:06:48;;;;;;;4.00;3.03;;;2.40;92.00;;;;;;4997075;28;89500;-70
2022/04/03 04:09:15;;;;;;;3.45;2.83;;;2.40;92.20;;;;;;5001152;28;88200;-70
2022/04/03 04:11:42;;;;;;;5.50;3.78;;;2.40;92.20;;;;;;4999890;28;87997;-70
2022/04/03 04:14:09;;;;;;;3.65;3.10;;;2.40;92.30;;;;;;5000333;28;101684;-70
2022/04/03 04:16:36;;;;;;;5.10;3.40;;;2.50;92.30;;;;;;4999352;28;90364;-70
2022/04/03 04:19:06;;;;;;;3.70;2.92;;;2.50;92.40;;;;;;5000667;28;88543;-70
2022/04/03 04:21:33;;;;;;;5.03;3.58;;;2.50;92.50;;;;;;4999618;28;88093;-70
2022/04/03 04:24:00;;;;;;;6.28;3.85;;;2.50;92.60;;;;;;4999705;28;88125;-70
2022/04/03 04:26:27;;;;;;;4.90;3.63;;;2.50;92.60;;;;;;4999278;28;91389;-70
2022/04/03 04:28:54;;;;;;;5.40;3.17;;;2.60;92.70;;;;;;4998896;28;91203;-70
2022/04/03 04:31:21;;;;;;;4.75;3.60;;;2.60;92.80;;;;;;4999487;28;88843;-70
2022/04/03 04:33:48;;;;;;;4.35;3.17;;;2.60;93.00;;;;;;4999174;28;88489;-70
2022/04/03 04:36:15;;;;;;;3.35;3.03;;;2.60;93.10;;;;;;4999563;28;88684;-70
2022/04/03 04:38:42;;;;;;;6.15;3.85;;;2.60;93.20;;;;;;5000416;28;88517;-70
2022/04/03 04:41:09;;;;;;;3.90;3.55;;;2.60;93.40;;;;;;4999258;28;88323;-70
2022/04/03 04:43:36;;;;;;;4.10;3.60;;;2.60;93.40;;;;;;5000160;28;88032;-70
2022/04/03 04:46:03;;;;;;;7.45;3.30;;;2.60;93.60;;;;;;5000246;28;88703;-70
2022/04/03 04:48:30;;;;;;;3.75;3.22;;;2.60;93.60;;;;;;4999105;28;99866;-70
2022/04/03 04:50:57;;;;;;;3.80;3.40;;;2.60;93.70;;;;;;4998883;28;89607;-70
2022/04/03 04:53:26;;;;;;;3.70;3.22;;;2.60;93.70;;;;;;5000322;28;88377;-70
2022/04/03 04:55:53;;;;;;;3.88;3.47;;;2.60;93.70;;;;;;4998266;28;92164;-70
2022/04/03 04:58:20;;;;;;;3.72;2.95;;;2.60;93.80;;;;;;5000287;28;89304;-70
2022/04/03 05:00:47;;;;;;;3.97;3.58;;;2.50;93.80;;;;;;5000408;28;88047;-70
2022/04/03 05:03:14;;;;;;;5.68;3.70;;;2.40;93.80;;;;;;5000067;28;88349;-70
2022/04/03 05:05:41;;;;;;;5.93;3.80;;;2.40;94.00;;;;;;4998849;28;88483;-70
2022/04/03 05:08:08;;;;;;;4.60;3.67;;;2.40;94.00;;;;;;4998501;28;91131;-70
2022/04/03 05:10:35;;;;;;;4.30;3.65;;;2.40;94.00;;;;;;4999971;28;88055;-70
2022/04/03 05:13:03;;;;;;;3.92;3.50;;;2.40;94.10;;;;;;5000132;28;88535;-70
2022/04/03 05:15:31;;;;;;;4.20;2.90;;;2.50;94.10;;;;;;4998719;28;91406;-70
2022/04/03 05:17:58;;;;;;;3.63;3.30;;;2.50;94.10;;;;;;4999830;28;88698;-70
2022/04/03 05:20:25;;;;;;;4.00;3.33;;;2.60;94.20;;;;;;4997605;28;89501;-70
2022/04/03 05:22:52;;;;;;;5.45;3.28;;;2.60;94.10;;;;;;4999732;28;88552;-70
2022/04/03 05:25:19;;;;;;;5.40;3.33;;;2.60;94.20;;;;;;4998634;28;91763;-70
2022/04/03 05:27:46;;;;;;;4.10;3.70;;;2.70;94.20;;;;;;4999735;28;88826;-70
2022/04/03 05:30:14;;;;;;;3.80;3.40;;;2.70;94.20;;;;;;4999618;28;88000;-70
2022/04/03 05:32:42;;;;;;;4.80;2.97;;;2.70;94.10;;;;;;4998126;28;91142;-70
2022/04/03 05:35:10;;;;;;;4.18;3.53;;;2.70;94.00;;;;;;4997136;28;93150;-70
2022/04/03 05:37:41;;;;;;;7.05;3.28;;;2.70;93.80;;;;;;4997754;28;92824;-70
2022/04/03 05:40:11;;;;;;;4.30;3.70;;;2.70;93.70;;;;;;4995977;28;93224;-70
2022/04/03 05:42:38;;;;;;;4.78;3.95;;;2.70;93.80;;;;;;4995941;28;92586;-70
2022/04/03 05:45:05;;;;;;;5.50;3.17;;;2.70;93.80;;;;;;4994408;28;98464;-70
2022/04/03 05:47:33;;;;;;;3.50;3.20;;;2.80;93.90;;;;;;4997030;28;95181;-70
2022/04/03 05:50:00;;;;;;;4.72;3.47;;;2.90;93.80;;;;;;4996087;28;92526;-70
2022/04/03 05:52:27;;;;;;;5.43;3.35;;;3.10;93.70;;;;;;4997261;28;92474;-70
2022/04/03 05:54:54;;;;;;;4.00;3.60;;;3.20;93.40;;;;;;4995676;28;96048;-70
2022/04/03 05:57:21;;;;;;;4.15;3.70;;;3.30;93.10;;;;;;4997242;28;93087;-70
2022/04/03 05:59:48;;;;;;;3.55;3.25;;;3.40;93.00;;;;;;4995781;28;92499;-70
2022/04/03 06:02:15;;;;;;;4.53;3.40;;;3.40;92.80;;;;;;4979475;28;91806;-70
2022/04/03 06:04:42;;;;;;;3.70;2.95;;;3.50;92.50;;;;;;4996795;28;93254;-70
2022/04/03 06:07:09;;;;;;;4.30;3.13;;;3.50;92.40;;;;;;4996760;28;93184;-70
2022/04/03 06:09:36;;;;;;;7.03;3.72;;;3.60;92.40;;;;;;4996081;28;94827;-70
2022/04/03 06:12:04;;;;;;;4.63;3.30;;;3.70;92.10;;;;;;4996762;28;92516;-70
2022/04/03 06:14:30;;;;;;;3.60;3.30;;;3.80;92.10;;;;;;4995625;28;93264;-70
2022/04/03 06:16:57;;;;;;;6.45;3.38;;;3.90;91.90;;;;;;4995251;28;95478;-70
2022/04/03 06:19:24;;;;;;;3.72;3.30;;;3.90;91.60;;;;;;4996887;28;92396;-70
2022/04/03 06:21:51;;;;;;;3.78;3.33;;;3.90;91.70;;;;;;4996661;28;92537;-70
2022/04/03 06:24:18;;;;;;;4.82;3.60;;;3.90;91.70;;;;;;4996417;28;93124;-70
2022/04/03 06:26:45;;;;;;;5.10;3.60;;;4.00;91.70;;;;;;4997059;28;93036;-70
2022/04/03 06:29:12;;;;;;;4.20;3.20;;;4.00;91.60;;;;;;4995207;28;92544;-70
2022/04/03 06:31:39;;;;;;;3.78;3.45;;;4.10;91.60;;;;;;4996776;28;92793;-70
2022/04/03 06:34:06;;;;;;;4.00;3.20;;;4.20;91.50;;;;;;4993503;28;98180;-70
2022/04/03 06:36:33;;;;;;;4.70;3.28;;;4.30;91.40;;;;;;4996462;28;95239;-70
2022/04/03 06:39:00;;;;;;;3.58;3.28;;;4.40;91.10;;;;;;4995086;28;92512;-70
2022/04/03 06:41:27;;;;;;;4.72;4.32;;;4.60;90.90;;;;;;4996585;28;92947;-70
2022/04/03 06:43:54;;;;;;;3.10;2.80;;;4.90;90.90;;;;;;4996432;28;93276;-70
2022/04/03 06:46:21;;;;;;;3.05;2.78;;;5.30;90.50;;;;;;4994922;28;93096;-71
2022/04/03 06:48:48;;;;;;;4.22;3.13;;;5.50;89.50;;;;;;4996286;28;92404;-70
2022/04/03 06:51:15;;;;;;;2.88;2.67;;;5.70;89.40;;;;;;4996256;28;92223;-70
2022/04/03 06:53:42;;;;;;;4.40;3.15;;;5.80;88.30;;;;;;4994939;28;93245;-70
2022/04/03 06:56:09;;;;;;;4.40;3.30;;;5.80;88.20;;;;;;4994892;28;93053;-70
2022/04/03 06:58:37;;;;;;;9.73;3.65;;;6.00;88.20;;;;;;4993912;28;94793;-71
2022/04/03 07:01:04;;;;;;;5.28;3.90;;;6.30;87.50;;;;;;4995567;28;92464;-71
2022/04/03 07:03:32;;;;;;;5.72;3.30;;;6.50;86.80;;;;;;4996077;28;93250;-70
2022/04/03 07:05:59;;;;;;;4.78;2.80;;;6.70;86.00;;;;;;4994978;28;92974;-71
2022/04/03 07:08:28;;;;;;;5.20;3.00;;;6.90;85.40;;;;;;4995940;28;92376;-70
2022/04/03 07:10:55;;;;;;;3.83;2.80;;;6.90;84.80;;;;;;4994573;28;92610;-70
2022/04/03 07:13:22;;;;;;;5.90;3.28;;;7.00;84.50;;;;;;4995825;28;92639;-70
2022/04/03 07:15:49;;;;;;;5.82;4.07;;;7.10;84.40;;;;;;4994761;28;94088;-71
2022/04/03 07:18:17;;;;;;;5.32;2.55;;;7.10;84.20;;;;;;4995848;28;92348;-71
2022/04/03 07:20:48;;;;;;;6.55;6.15;;;7.20;83.70;;;;;;4994344;28;92997;-71
2022/04/03 07:23:15;;;;;;;5.25;4.75;;;7.20;83.50;;;;;;4994487;28;95458;-69
2022/04/03 07:25:41;;;;;;;4.95;3.72;;;7.50;84.10;;;;;;4995734;28;95345;-69
2022/04/03 07:28:08;;;;;;;5.65;4.88;;;8.00;83.20;;;;;;4994344;28;92513;-69
2022/04/03 07:30:36;;;;;;;5.78;5.35;;;8.60;82.00;;;;;;4994381;28;92617;-70
2022/04/03 07:33:02;;;;;;;5.03;4.63;;;9.20;80.90;;;;;;4995391;28;106567;-70
2022/04/03 07:35:30;;;;;;;5.38;4.93;;;9.80;79.40;;;;;;4995473;28;93031;-70
2022/04/03 07:37:57;;;;;;;8.52;8.02;;;10.30;77.30;;;;;;4995607;28;92340;-70
2022/04/03 07:40:24;;;;;;;5.45;5.05;;;10.90;75.70;;;;;;4995524;28;91700;-70
2022/04/03 07:48:32;;;;;;;7.70;6.93;;;12.40;69.00;;;;;;4993808;28;92375;-70
2022/04/03 07:50:59;;;;;;;4.05;3.75;;;13.20;64.30;;;;;;4994138;28;94837;-70
2022/04/03 07:53:30;;;;;;;4.18;3.88;;;13.60;65.50;;;;;;4995659;28;92352;-69
2022/04/03 07:55:57;;;;;;;2.95;2.78;;;14.10;63.40;;;;;;4994077;28;93248;-70
2022/04/03 07:58:24;;;;;;;5.28;4.95;;;14.30;62.10;;;;;;4995341;28;92524;-70
2022/04/03 08:00:51;;;;;;;3.72;3.53;;;14.60;61.50;;;;;;4993907;28;92943;-71
2022/04/03 08:03:18;;;;;;;2.97;2.70;;;14.90;60.40;;;;;;4995503;28;92516;-70
2022/04/03 08:05:45;;;;;;;3.80;3.50;;;15.00;59.20;;;;;;4993663;28;94757;-70
2022/04/03 08:08:12;;;;;;;4.20;3.20;;;15.10;58.20;;;;;;4993359;28;108349;-70
2022/04/03 08:10:39;;;;;;;3.35;3.15;;;15.20;58.30;;;;;;4995387;28;92435;-70
2022/04/03 08:13:06;;;;;;;5.65;5.07;;;14.70;54.90;;;;;;4995283;28;92879;-70
2022/04/03 08:15:33;;;;;;;4.72;4.40;;;14.20;58.40;;;;;;4992465;28;98389;-70
2022/04/03 08:18:00;;;;;;;4.47;4.28;;;14.10;59.40;;;;;;4994457;28;95715;-70
2022/04/03 08:20:27;;;;;;;4.22;3.95;;;14.20;60.30;;;;;;4993762;28;92434;-70
2022/04/03 08:22:55;;;;;;;3.22;2.97;;;14.50;58.30;;;;;;4995190;28;92442;-70
2022/04/03 08:25:21;;;;;;;3.25;3.05;;;14.30;57.20;;;;;;4993599;28;95693;-70
2022/04/03 08:27:54;;;;;;;2.30;2.13;;;14.20;57.80;;;;;;4993445;28;94488;-69
2022/04/03 08:30:21;;;;;;;2.53;2.25;;;14.00;58.00;;;;;;4993819;28;92506;-70
2022/04/03 08:32:49;;;;;;;3.08;2.03;;;13.80;57.90;;;;;;4994854;28;103948;-70
2022/04/03 08:35:16;;;;;;;3.72;2.40;;;13.80;59.50;;;;;;4993490;28;93238;-70
2022/04/03 08:37:44;;;;;;;1.50;1.40;;;13.80;60.20;;;;;;4993720;28;92991;-70
2022/04/03 08:40:18;;;;;;;3.35;1.58;;;13.60;59.90;;;;;;5008808;28;94776;-70
2022/04/03 08:42:46;;;;;;;6.45;1.70;;;13.50;61.20;;;;;;4993630;28;92496;-70
2022/04/03 08:45:13;;;;;;;5.40;1.85;;;13.20;59.80;;;;;;4994343;28;93263;-70
2022/04/03 08:47:49;;;;;;;2.10;1.52;;;13.00;62.10;;;;;;4994658;28;93085;-70
2022/04/03 08:50:18;;;;;;;3.75;1.88;;;13.10;62.50;;;;;;4994959;28;92506;-70
2022/04/03 08:52:47;;;;;;;1.75;1.20;;;12.60;63.20;;;;;;4994752;28;92430;-70
2022/04/03 08:55:15;;;;;;;1.70;1.40;;;12.30;64.30;;;;;;4995258;28;96004;-70
2022/04/03 08:57:46;;;;;;;3.08;1.50;;;12.00;64.70;;;;;;4996971;28;93102;-70
2022/04/03 09:00:32;;;;;;;1.92;1.02;;;11.70;65.30;;;;;;4996641;28;93310;-69
2022/04/03 09:03:01;;;;;;;1.83;1.73;;;11.30;65.40;;;;;;4996425;28;92465;-70
2022/04/03 09:05:39;;;;;;;3.78;1.63;;;10.80;67.60;;;;;;4995746;28;95646;-70
2022/04/03 09:08:07;;;;;;;2.50;1.20;;;10.80;70.10;;;;;;4997522;28;95382;-70
2022/04/03 09:10:34;;;;;;;1.40;0.80;;;10.70;67.90;;;;;;4996487;28;92414;-70
2022/04/03 09:13:02;;;;;;;2.00;1.10;;;10.50;63.60;;;;;;4997363;28;95923;-69
2022/04/03 09:15:30;;;;;;;1.85;0.90;;;10.30;65.50;;;;;;4998135;28;92458;-70
2022/04/03 09:18:03;;;;;;;2.25;1.00;;;10.40;66.20;;;;;;4996382;28;93110;-69
2022/04/03 09:20:32;;;;;;;3.88;1.20;;;10.70;65.90;;;;;;4998171;28;92419;-70
2022/04/03 09:23:42;;;;;;;2.55;0.90;;;10.80;65.20;;;;;;4998072;28;91744;-69
2022/04/03 09:26:16;;;;;;;1.70;1.00;;;10.80;61.70;;;;;;4916310;28;93369;-70
2022/04/03 09:28:43;;;;;;;1.67;1.02;;;10.80;63.70;;;;;;4985645;28;92967;-71
2022/04/03 09:31:25;;;;;;;4.30;1.08;;;10.80;64.80;;;;;;4994595;28;94885;-71
2022/04/03 09:34:00;;;;;;;4.15;1.05;;;11.10;62.90;;;;;;4994274;28;92476;-71
2022/04/03 09:36:34;;;;;;;1.48;0.88;;;11.20;63.70;;;;;;4996829;28;92995;-71
2022/04/03 09:43:40;;;;;;;0.77;0.70;;;11.70;63.60;;;;;;4997094;28;92742;-71
2022/04/03 09:46:12;;;;;;;2.15;1.08;;;11.80;59.70;;;;;;4996590;28;93655;-71
2022/04/03 09:48:41;;;;;;;6.32;1.08;;;11.70;60.00;;;;;;4995767;28;93176;-69
2022/04/03 09:51:11;;;;;;;3.47;1.13;;;11.80;61.20;;;;;;4996275;28;95599;-71
2022/04/03 09:53:42;;;;;;;1.52;1.30;;;11.70;60.40;;;;;;4996938;28;92317;-71
2022/04/03 09:56:11;;;;;;;1.90;1.10;;;11.40;61.80;;;;;;4997177;28;92403;-71
2022/04/03 09:58:54;;;;;;;2.08;0.88;;;10.90;64.90;;;;;;4995720;28;95723;-71
2022/04/03 10:01:30;;;;;;;2.40;0.80;;;10.70;66.90;;;;;;4996945;28;95323;-71
2022/04/03 10:04:00;;;;;;;1.50;0.90;;;10.40;67.90;;;;;;4996151;28;92373;-71
2022/04/03 10:06:29;;;;;;;2.80;1.48;;;10.20;69.50;;;;;;4996870;28;92481;-71
2022/04/03 10:08:57;;;;;;;4.07;1.17;;;10.00;69.50;;;;;;4996314;28;103257;-71
2022/04/03 10:11:25;;;;;;;2.20;1.10;;;9.90;70.50;;;;;;4996933;28;93058;-71
2022/04/03 10:13:53;;;;;;;1.55;0.88;;;9.80;71.60;;;;;;4996769;28;92429;-71
2022/04/03 10:16:21;;;;;;;2.70;1.20;;;10.00;70.90;;;;;;4997483;28;91637;-71
2022/04/03 10:18:50;;;;;;;1.15;0.90;;;10.30;71.80;;;;;;4996499;28;93642;-71
2022/04/03 10:21:36;;;;;;;2.28;0.95;;;10.60;68.50;;;;;;4996833;28;92896;-71
2022/04/03 10:24:15;;;;;;;3.05;0.70;;;10.90;65.90;;;;;;4995873;28;94834;-71
2022/04/03 10:26:48;;;;;;;1.70;0.80;;;11.10;63.30;;;;;;4996730;28;92378;-71
2022/04/03 10:29:16;;;;;;;3.55;1.17;;;11.20;63.30;;;;;;4995587;28;93279;-71
2022/04/03 10:31:55;;;;;;;1.92;0.82;;;11.20;62.20;;;;;;4996493;28;92710;-71
2022/04/03 10:34:22;;;;;;;1.77;0.95;;;11.00;64.30;;;;;;4995287;28;92588;-71
2022/04/03 10:36:53;;;;;;;2.40;0.77;;;10.70;65.00;;;;;;4995368;28;92894;-71
2022/04/03 10:39:26;;;;;;;1.23;0.63;;;10.30;67.00;;;;;;5011158;28;93310;-71
2022/04/03 10:42:30;;;;;;;1.10;1.00;;;10.00;66.90;;;;;;4996684;28;93258;-71
2022/04/03 10:45:11;;;;;;;2.65;1.45;;;9.80;66.10;;;;;;4934743;28;92512;-69
2022/04/03 10:47:42;;;;;;;1.85;0.82;;;9.80;66.10;;;;;;4990863;28;92482;-71
2022/04/03 10:50:21;;;;;;;1.88;0.75;;;9.80;66.20;;;;;;4993642;28;98123;-71
2022/04/03 10:52:56;;;;;;;1.58;0.90;;;9.80;65.30;;;;;;4994486;28;97920;-71
2022/04/03 10:55:26;;;;;;;1.85;0.80;;;9.90;64.60;;;;;;4995116;28;92486;-71
2022/04/03 10:57:57;;;;;;;2.47;1.00;;;10.00;66.60;;;;;;4995049;28;92427;-71
2022/04/03 11:00:24;;;;;;;1.52;0.80;;;10.10;64.20;;;;;;4994767;28;95683;-71
2022/04/03 11:02:57;;;;;;;1.95;0.88;;;10.30;65.70;;;;;;4994728;28;92909;-71
2022/04/03 11:05:27;;;;;;;2.05;0.98;;;10.60;64.40;;;;;;4994773;28;92475;-71
2022/04/03 11:08:00;;;;;;;1.25;0.70;;;10.80;61.90;;;;;;4996075;28;92207;-70
2022/04/03 11:10:45;;;;;;;2.47;0.60;;;11.00;61.40;;;;;;4995055;28;92480;-70
2022/04/03 11:13:14;;;;;;;1.25;0.60;;;11.40;63.00;;;;;;4996234;28;93036;-70
2022/04/03 11:15:55;;;;;;;1.23;0.80;;;11.60;60.20;;;;;;4994811;28;95360;-70
2022/04/03 11:18:44;;;;;;;0.70;0.65;;;11.80;57.30;;;;;;4995558;28;93167;-70
2022/04/03 11:21:30;;;;;;;1.42;0.63;;;11.80;57.50;;;;;;4994575;28;95941;-70
2022/04/03 11:24:11;;;;;;;1.40;0.70;;;11.80;56.00;;;;;;4994167;28;95567;-70
2022/04/03 11:26:40;;;;;;;1.58;0.80;;;11.70;58.20;;;;;;4994432;28;92431;-71
2022/04/03 11:29:10;;;;;;;2.78;1.00;;;11.80;58.70;;;;;;4995496;28;92479;-71
2022/04/03 11:31:40;;;;;;;0.93;0.80;;;12.10;60.30;;;;;;4995649;28;93087;-71
2022/04/03 11:34:08;;;;;;;2.92;0.90;;;12.50;60.10;;;;;;5001425;28;93560;-71
2022/04/03 11:36:35;;;;;;;1.13;0.90;;;12.80;60.40;;;;;;5017411;28;92416;-71
2022/04/03 11:39:09;;;;;;;1.55;0.90;;;12.90;58.30;;;;;;5001533;28;92819;-71
2022/04/03 11:41:37;;;;;;;2.13;0.70;;;12.90;54.50;;;;;;5016481;28;95455;-71
2022/04/03 11:44:11;;;;;;;1.27;0.85;;;12.70;56.30;;;;;;5016873;28;98082;-71
2022/04/03 11:46:43;;;;;;;0.85;0.77;;;12.40;56.30;;;;;;5018027;28;92506;-71
2022/04/03 11:49:30;;;;;;;1.98;0.90;;;12.10;57.80;;;;;;5035594;28;92419;-71
2022/04/03 11:52:08;;;;;;;2.75;0.73;;;12.10;57.50;;;;;;5035299;28;93097;-71
2022/04/03 11:54:36;;;;;;;1.60;0.90;;;11.90;55.70;;;;;;5035239;28;92995;-70
2022/04/03 11:57:08;;;;;;;1.02;0.70;;;11.70;54.00;;;;;;5026577;28;92445;-69
2022/04/03 11:59:37;;;;;;;2.08;0.93;;;11.70;53.40;;;;;;5015841;28;92187;-70
2022/04/03 12:02:14;;;;;;;2.60;1.30;;;11.50;61.10;;;;;;4996638;28;95829;-70
2022/04/03 12:04:42;;;;;;;1.73;1.20;;;11.30;65.20;;;;;;4997239;28;95471;-70
2022/04/03 12:07:16;;;;;;;2.35;1.00;;;11.00;65.50;;;;;;4995821;28;94921;-69
2022/04/03 12:09:45;;;;;;;1.15;0.82;;;10.70;66.70;;;;;;5015818;28;92783;-71
2022/04/03 12:12:13;;;;;;;0.80;0.80;;;10.40;67.60;;;;;;4996796;28;95618;-71
2022/04/03 12:14:45;;;;;;;2.88;1.90;;;10.30;68.40;;;;;;5014824;28;93523;-69
2022/04/03 12:17:14;;;;;;;4.10;1.20;;;10.20;70.10;;;;;;4997421;28;92526;-69
2022/04/03 12:19:48;;;;;;;1.60;1.27;;;10.00;69.10;;;;;;4997030;28;92906;-69
2022/04/03 12:22:18;;;;;;;2.58;1.38;;;10.00;70.50;;;;;;5014508;28;93092;-70
2022/04/03 12:24:47;;;;;;;1.05;1.00;;;9.90;71.20;;;;;;5015284;28;93162;-69
2022/04/03 12:27:14;;;;;;;1.15;1.00;;;10.00;70.60;;;;;;5014576;28;92397;-71
2022/04/03 12:29:46;;;;;;;3.75;1.20;;;10.20;70.30;;;;;;5018121;28;92410;-71
2022/04/03 12:32:15;;;;;;;1.23;1.10;;;10.20;70.30;;;;;;5017080;28;95567;-71
2022/04/03 12:34:46;;;;;;;1.52;1.00;;;10.20;68.70;;;;;;4982858;28;96425;-69
2022/04/03 12:37:15;;;;;;;1.73;0.90;;;10.10;69.30;;;;;;4999976;28;92506;-69
2022/04/03 12:39:49;;;;;;;1.60;1.10;;;10.20;69.80;;;;;;5018321;28;92409;-69
2022/04/03 12:42:23;;;;;;;3.72;1.52;;;10.30;69.00;;;;;;4999608;28;95921;-69
2022/04/03 12:44:54;;;;;;;0.98;0.85;;;10.20;67.70;;;;;;5000207;28;97294;-69
2022/04/03 12:47:30;;;;;;;1.60;1.27;;;10.20;67.90;;;;;;5000437;28;92440;-70
2022/04/03 12:50:06;;;;;;;1.20;1.10;;;10.10;69.00;;;;;;5000200;28;92032;-71
2022/04/03 12:52:48;;;;;;;1.42;0.90;;;10.30;68.50;;;;;;4999818;28;96699;-71
2022/04/03 12:55:24;;;;;;;2.63;1.15;;;10.40;65.20;;;;;;5018018;28;92432;-70
2022/04/03 13:01:06;;;;;;;2.17;1.30;;;10.40;64.30;;;;;;5018187;28;92955;-70
2022/04/03 13:03:38;;;;;;;1.02;1.02;;;10.40;65.80;;;;;;5017956;28;92951;-70
2022/04/03 13:06:26;;;;;;;1.52;0.90;;;10.20;69.10;;;;;;4999630;28;96126;-71
2022/04/03 13:09:07;;;;;;;1.85;1.10;;;10.20;68.90;;;;;;5018012;28;92450;-70
2022/04/03 13:11:47;;;;;;;0.98;0.70;;;10.30;67.90;;;;;;5000623;28;92368;-71
2022/04/03 13:14:17;;;;;;;2.10;0.70;;;10.50;66.60;;;;;;4999022;28;102599;-70
2022/04/03 13:16:46;;;;;;;1.73;0.55;;;10.60;63.40;;;;;;5018217;28;92726;-70